Time;durP1;ratioP1;P1;durP2;ratioP2;P2;SDS_P1;SDS_P2;PMS_P1;PMS_P2;Temp;Humidity;BMP_temperature;BMP_pressure;BME280_temperature;BME280_humidity;BME280_pressure;Samples;Min_cycle;Max_cycle;Signal;HPM_P1;HPM_P2
2021/10/29 00:00:36;;;;;;;11.73;8.18;;;;;;;12.56;55.21;99398.53;4953533;29;20073;-80
2021/10/29 00:03:09;;;;;;;11.25;8.50;;;;;;;12.53;55.58;99401.41;4954657;28;20500;-80
2021/10/29 00:05:36;;;;;;;11.60;7.70;;;;;;;12.56;55.16;99403.81;4953770;29;20554;-80
2021/10/29 00:08:03;;;;;;;12.77;8.55;;;;;;;12.55;55.42;99391.56;4953686;29;20061;-81
2021/10/29 00:10:35;;;;;;;11.77;7.82;;;;;;;12.54;55.85;99405.72;4953438;29;20061;-80
2021/10/29 00:13:03;;;;;;;11.10;8.57;;;;;;;12.56;55.38;99401.16;4954871;29;20472;-80
2021/10/29 00:15:31;;;;;;;12.98;8.15;;;;;;;12.57;54.99;99407.31;4953289;28;20054;-80
2021/10/29 00:18:02;;;;;;;11.25;8.05;;;;;;;12.55;55.70;99402.13;4953455;29;20069;-81
2021/10/29 00:20:29;;;;;;;12.82;8.32;;;;;;;12.58;55.36;99403.69;4953509;29;20066;-80
2021/10/29 00:22:56;;;;;;;11.68;8.00;;;;;;;12.57;55.09;99408.16;4953305;29;20061;-80
2021/10/29 00:25:27;;;;;;;10.52;8.18;;;;;;;12.55;55.70;99402.13;4975562;28;20488;-80
2021/10/29 00:28:07;;;;;;;10.32;7.30;;;;;;;12.56;55.60;99411.72;4956739;29;20051;-80
2021/10/29 00:30:46;;;;;;;8.48;6.97;;;;;;;12.55;55.75;99409.19;4954136;29;20077;-80
2021/10/29 00:33:15;;;;;;;8.95;6.53;;;;;;;12.57;55.16;99410.78;4953437;29;20055;-80
2021/10/29 00:35:43;;;;;;;11.88;6.85;;;;;;;12.57;55.33;99408.16;4953077;29;20089;-80
2021/10/29 00:38:21;;;;;;;9.23;7.05;;;;;;;12.54;55.71;99411.00;4953090;29;20102;-80
2021/10/29 00:40:48;;;;;;;12.32;7.25;;;;;;;12.58;55.10;99401.91;4952921;28;20062;-80
2021/10/29 00:43:15;;;;;;;11.27;6.78;;;;;;;12.58;55.23;99407.19;4954336;28;20708;-80
2021/10/29 00:45:42;;;;;;;9.27;7.00;;;;;;;12.58;55.17;99408.97;4953109;28;20494;-80
2021/10/29 00:48:31;;;;;;;9.63;6.43;;;;;;;12.55;55.63;99402.13;4952702;28;20061;-80
2021/10/29 00:50:57;;;;;;;9.57;6.60;;;;;;;12.59;55.16;99402.75;4952856;28;20059;-80
2021/10/29 00:53:27;;;;;;;9.10;6.30;;;;;;;12.58;55.28;99406.34;4952730;29;20051;-80
2021/10/29 00:55:56;;;;;;;9.35;6.18;;;;;;;12.59;55.06;99406.25;4952727;29;20134;-80
2021/10/29 00:58:26;;;;;;;11.85;7.07;;;;;;;12.58;55.38;99404.56;4953731;28;20065;-80
2021/10/29 01:00:53;;;;;;;9.77;6.70;;;;;;;12.60;55.21;99415.00;4952701;28;20150;-80
2021/10/29 01:03:21;;;;;;;7.03;5.57;;;;;;;12.59;55.09;99413.31;4952661;28;20047;-80
2021/10/29 01:05:47;;;;;;;8.80;6.55;;;;;;;12.59;55.13;99403.59;4952912;29;20138;-80
2021/10/29 01:08:15;;;;;;;7.35;5.43;;;;;;;12.60;55.17;99401.81;4952414;28;20056;-80
2021/10/29 01:10:41;;;;;;;7.72;6.00;;;;;;;12.60;55.20;99396.53;4952804;29;20075;-80
2021/10/29 01:13:08;;;;;;;9.23;6.05;;;;;;;12.61;54.96;99399.06;4952047;28;20138;-80
2021/10/29 01:15:40;;;;;;;10.25;6.57;;;;;;;12.60;55.28;99388.63;4952474;29;20047;-80
2021/10/29 01:18:07;;;;;;;6.88;5.60;;;;;;;12.62;55.00;99386.69;4953428;29;20059;-80
2021/10/29 01:20:33;;;;;;;9.05;6.20;;;;;;;12.62;54.97;99384.06;4952634;29;20055;-80
2021/10/29 01:23:09;;;;;;;8.32;6.43;;;;;;;12.58;55.06;99386.06;4953804;29;20407;-80
2021/10/29 01:25:36;;;;;;;6.22;5.15;;;;;;;12.62;54.84;99386.69;4952245;29;20051;-80
2021/10/29 01:28:03;;;;;;;9.18;6.20;;;;;;;12.61;54.84;99385.88;4952245;28;20081;-80
2021/10/29 01:30:30;;;;;;;6.85;5.65;;;;;;;12.61;54.80;99391.16;4953525;29;20055;-80
2021/10/29 01:32:57;;;;;;;8.05;5.70;;;;;;;12.61;54.85;99380.59;4952159;29;20069;-80
2021/10/29 01:35:24;;;;;;;9.15;5.95;;;;;;;12.61;54.67;99383.22;4953915;28;20051;-80
2021/10/29 01:38:03;;;;;;;10.23;6.30;;;;;;;12.57;55.06;99381.75;4952204;29;20555;-80
2021/10/29 01:40:29;;;;;;;8.60;6.13;;;;;;;12.59;54.73;99377.19;4952118;28;20055;-80
2021/10/29 01:42:56;;;;;;;8.23;5.80;;;;;;;12.60;54.61;99375.41;4952345;28;20052;-81
2021/10/29 01:45:27;;;;;;;8.93;6.32;;;;;;;12.56;54.89;99368.66;4952056;28;20067;-80
2021/10/29 01:47:54;;;;;;;8.73;6.00;;;;;;;12.57;54.48;99372.97;4951982;29;20051;-80
2021/10/29 01:50:21;;;;;;;8.25;6.30;;;;;;;12.55;54.70;99365.16;4952108;29;20502;-80
2021/10/29 01:52:54;;;;;;;11.57;5.93;;;;;;;12.50;54.92;99368.16;4952271;29;20082;-80
2021/10/29 01:55:21;;;;;;;12.93;6.35;;;;;;;12.53;54.81;99358.31;4951877;29;20097;-80
2021/10/29 01:57:48;;;;;;;7.40;6.05;;;;;;;12.50;54.69;99354.09;4952240;29;20058;-80
2021/10/29 02:00:15;;;;;;;9.25;6.13;;;;;;;12.49;54.69;99357.69;4951971;29;20411;-80
2021/10/29 02:03:00;;;;;;;7.32;6.00;;;;;;;12.43;54.88;99355.47;4952085;28;20410;-80
2021/10/29 02:05:27;;;;;;;8.25;5.40;;;;;;;12.45;54.92;99359.69;4951516;29;20408;-80
2021/10/29 02:07:54;;;;;;;10.23;5.35;;;;;;;12.42;54.85;99352.00;4951079;28;20061;-80
2021/10/29 02:11:02;;;;;;;7.55;5.68;;;;;;;12.36;55.12;99353.28;4951636;28;20067;-80
2021/10/29 02:13:29;;;;;;;9.88;5.05;;;;;;;12.41;54.84;99346.84;4951581;28;20058;-80
2021/10/29 02:15:56;;;;;;;6.75;5.45;;;;;;;12.40;54.67;99353.09;4951484;28;20129;-80
2021/10/29 02:18:23;;;;;;;7.72;5.60;;;;;;;12.37;54.87;99343.56;4951421;29;20104;-80
2021/10/29 02:20:55;;;;;;;7.13;5.65;;;;;;;12.36;54.98;99339.25;4951710;28;20055;-80
2021/10/29 02:23:24;;;;;;;7.45;5.72;;;;;;;12.35;55.12;99335.78;4951523;29;20126;-80
2021/10/29 02:25:51;;;;;;;7.82;5.63;;;;;;;12.35;54.99;99334.91;4951243;28;20139;-80
2021/10/29 02:28:30;;;;;;;8.27;5.95;;;;;;;12.32;55.46;99335.13;4951633;29;20476;-80
2021/10/29 02:30:56;;;;;;;9.73;5.72;;;;;;;12.36;55.08;99323.41;4951738;29;20055;-80
2021/10/29 02:33:24;;;;;;;8.82;5.72;;;;;;;12.36;55.12;99312.84;4951408;28;20047;-80
2021/10/29 02:35:52;;;;;;;8.05;5.88;;;;;;;12.35;55.24;99321.72;4951653;29;20407;-81
2021/10/29 02:38:18;;;;;;;14.00;6.40;;;;;;;12.36;55.12;99312.84;4951133;28;20052;-80
2021/10/29 02:40:45;;;;;;;10.10;6.00;;;;;;;12.36;55.13;99315.47;4951631;29;20055;-80
2021/10/29 02:43:18;;;;;;;7.82;5.80;;;;;;;12.33;55.32;99316.53;4951646;28;20476;-80
2021/10/29 02:45:45;;;;;;;7.55;5.88;;;;;;;12.35;55.04;99309.38;4951179;29;20056;-80
2021/10/29 02:48:12;;;;;;;7.90;5.20;;;;;;;12.35;55.30;99313.81;4952447;28;20089;-80
2021/10/29 02:50:58;;;;;;;9.35;5.47;;;;;;;12.30;55.43;99300.94;4951193;28;20059;-80
2021/10/29 02:53:25;;;;;;;7.28;4.90;;;;;;;12.34;55.23;99302.41;4951103;28;20051;-80
2021/10/29 02:55:52;;;;;;;6.95;4.88;;;;;;;12.33;55.15;99303.34;4951149;28;20051;-80
2021/10/29 02:58:19;;;;;;;8.63;5.57;;;;;;;12.33;55.19;99306.00;4950888;29;20130;-80
2021/10/29 03:00:46;;;;;;;7.07;4.93;;;;;;;12.33;55.29;99305.13;4951069;29;20055;-80
2021/10/29 03:03:23;;;;;;;7.57;5.55;;;;;;;12.30;55.74;99308.84;4951349;29;20503;-80
2021/10/29 03:05:50;;;;;;;8.05;5.03;;;;;;;12.34;55.49;99297.13;4950932;28;20137;-80
2021/10/29 03:08:17;;;;;;;8.85;5.32;;;;;;;12.33;55.37;99305.13;4950837;29;20058;-80
2021/10/29 03:10:48;;;;;;;8.85;5.43;;;;;;;12.33;55.80;99310.41;4951345;28;20073;-80
2021/10/29 03:13:16;;;;;;;12.10;5.78;;;;;;;12.36;55.48;99299.66;4951089;28;20069;-80
2021/10/29 03:15:44;;;;;;;7.05;5.00;;;;;;;12.35;55.55;99296.19;4951141;28;20055;-80
2021/10/29 03:18:10;;;;;;;8.73;6.05;;;;;;;12.36;55.35;99292.59;4950715;28;20056;-80
2021/10/29 03:20:37;;;;;;;7.20;5.15;;;;;;;12.38;55.33;99295.13;4950804;29;20055;-80
2021/10/29 03:23:08;;;;;;;7.70;5.40;;;;;;;12.36;55.88;99283.81;4951164;29;20571;-80
2021/10/29 03:25:35;;;;;;;8.32;5.32;;;;;;;12.38;55.57;99281.91;4950950;29;20455;-80
2021/10/29 03:28:02;;;;;;;8.98;5.18;;;;;;;12.40;55.41;99279.19;4950644;29;20058;-80
2021/10/29 03:30:28;;;;;;;9.00;5.60;;;;;;;12.40;55.62;99280.00;4950566;29;20061;-80
2021/10/29 03:32:57;;;;;;;8.27;5.43;;;;;;;12.41;55.54;99271.13;4950450;28;20093;-80
2021/10/29 03:35:24;;;;;;;7.68;5.05;;;;;;;12.41;55.54;99270.28;4950409;28;20141;-81
2021/10/29 03:38:20;;;;;;;7.60;5.35;;;;;;;12.40;55.47;99271.25;4952989;28;20051;-81
2021/10/29 03:41:10;;;;;;;8.77;5.80;;;;;;;12.40;55.49;99269.44;4954234;28;20472;-81
2021/10/29 03:46:29;;;;;;;9.23;5.28;;;;;;;12.38;55.60;99263.44;4955459;29;20054;-81
2021/10/29 03:56:56;;;;;;;7.82;5.40;;;;;;;12.32;55.92;99269.16;4954713;28;20411;-79
2021/10/29 03:59:22;;;;;;;8.60;5.80;;;;;;;12.35;55.63;99263.66;4953388;29;20417;-80
2021/10/29 04:01:49;;;;;;;7.57;5.13;;;;;;;12.34;55.63;99254.06;4953481;28;20070;-81
2021/10/29 04:04:16;;;;;;;8.88;5.72;;;;;;;12.34;55.81;99264.63;4953379;29;20055;-83
2021/10/29 04:06:46;;;;;;;10.23;5.63;;;;;;;12.33;55.67;99261.13;4952946;29;20061;-83
2021/10/29 04:09:14;;;;;;;7.30;5.93;;;;;;;12.33;55.88;99255.00;4953242;28;20059;-81
2021/10/29 04:11:41;;;;;;;8.98;5.22;;;;;;;12.33;55.80;99263.75;4955150;29;20438;-81
2021/10/29 04:14:13;;;;;;;7.20;5.57;;;;;;;12.33;55.82;99255.00;4953637;29;20142;-81
2021/10/29 04:16:40;;;;;;;6.90;5.13;;;;;;;12.33;55.88;99252.34;4953446;29;20505;-81
2021/10/29 04:19:09;;;;;;;7.65;5.47;;;;;;;12.32;55.81;99245.41;4953504;29;20062;-79
2021/10/29 04:21:37;;;;;;;9.52;5.25;;;;;;;12.33;56.00;99252.34;4953386;28;20495;-79
2021/10/29 04:24:07;;;;;;;9.88;5.82;;;;;;;12.30;56.02;99255.25;4953114;28;20583;-79
2021/10/29 04:26:36;;;;;;;8.35;5.35;;;;;;;12.30;55.85;99248.16;4952852;29;20142;-79
2021/10/29 04:29:15;;;;;;;11.73;5.75;;;;;;;12.29;55.80;99246.47;4952956;29;20514;-79
2021/10/29 04:31:49;;;;;;;8.10;5.82;;;;;;;12.28;55.94;99251.84;4953235;29;20138;-80
2021/10/29 04:34:30;;;;;;;8.77;5.85;;;;;;;12.24;55.98;99253.88;4953398;29;20137;-81
2021/10/29 04:36:59;;;;;;;9.00;6.20;;;;;;;12.27;55.95;99242.25;4953003;29;20098;-81
2021/10/29 04:39:27;;;;;;;8.35;5.88;;;;;;;12.25;55.92;99253.78;4953208;28;20532;-81
2021/10/29 04:41:57;;;;;;;8.27;5.82;;;;;;;12.23;56.34;99246.94;4953193;29;20082;-81
2021/10/29 04:44:24;;;;;;;8.98;5.75;;;;;;;12.24;55.84;99243.31;4953171;29;20130;-81
2021/10/29 04:46:51;;;;;;;10.10;6.10;;;;;;;12.22;56.09;99235.50;4952741;28;20043;-81
2021/10/29 04:49:19;;;;;;;10.10;5.65;;;;;;;12.23;56.02;99244.28;4951609;29;20059;-83
2021/10/29 04:51:46;;;;;;;7.78;5.80;;;;;;;12.23;56.05;99231.09;4952883;29;20494;-80
2021/10/29 04:54:13;;;;;;;9.57;5.88;;;;;;;12.24;56.01;99232.78;4952541;28;20055;-83
2021/10/29 04:56:43;;;;;;;8.77;5.63;;;;;;;12.25;56.17;99229.16;4952446;29;20137;-79
2021/10/29 04:59:13;;;;;;;10.18;6.03;;;;;;;12.24;56.08;99228.34;4952452;29;20090;-79
2021/10/29 05:01:39;;;;;;;9.07;5.90;;;;;;;12.25;56.03;99237.94;4952487;28;20059;-80
2021/10/29 05:04:07;;;;;;;7.20;5.68;;;;;;;12.25;56.18;99226.53;4952620;29;20052;-81
2021/10/29 05:06:34;;;;;;;9.60;5.53;;;;;;;12.25;56.32;99224.75;4953856;29;20476;-81
2021/10/29 05:09:01;;;;;;;8.57;5.65;;;;;;;12.27;56.15;99224.63;4952577;28;20055;-83
2021/10/29 05:11:35;;;;;;;11.30;5.95;;;;;;;12.24;56.57;99222.22;4953602;28;20051;-83
2021/10/29 05:14:02;;;;;;;9.82;5.80;;;;;;;12.28;56.15;99223.69;4952453;29;20061;-83
2021/10/29 05:16:32;;;;;;;6.75;5.32;;;;;;;12.28;56.35;99222.81;4952778;28;20058;-83
2021/10/29 05:18:59;;;;;;;9.43;5.75;;;;;;;12.29;56.25;99220.06;4952290;29;20051;-83
2021/10/29 05:21:27;;;;;;;7.47;5.40;;;;;;;12.30;56.22;99220.94;4952283;29;20134;-83
2021/10/29 05:23:53;;;;;;;8.00;5.93;;;;;;;12.31;56.20;99218.19;4953132;29;20067;-83
2021/10/29 05:26:22;;;;;;;9.45;6.03;;;;;;;12.29;56.34;99217.44;4952031;28;20055;-80
2021/10/29 05:28:49;;;;;;;8.68;6.10;;;;;;;12.32;56.22;99213.72;4953336;28;20055;-80
2021/10/29 05:31:16;;;;;;;10.55;6.13;;;;;;;12.31;56.09;99212.06;4952050;29;20225;-79
2021/10/29 05:33:43;;;;;;;7.45;5.55;;;;;;;12.32;56.11;99213.72;4952382;29;20522;-80
2021/10/29 05:36:10;;;;;;;8.13;5.65;;;;;;;12.31;56.21;99210.28;4952041;28;20492;-81
2021/10/29 05:38:38;;;;;;;7.70;5.85;;;;;;;12.31;56.20;99212.06;4951982;29;20138;-81
2021/10/29 05:41:06;;;;;;;9.43;5.90;;;;;;;12.30;56.26;99216.47;4951884;29;20062;-82
2021/10/29 05:43:36;;;;;;;8.32;5.75;;;;;;;12.31;56.35;99212.91;4953241;28;20077;-82
2021/10/29 05:46:03;;;;;;;7.85;5.47;;;;;;;12.32;56.21;99217.22;4951757;28;20055;-79
2021/10/29 05:48:33;;;;;;;8.32;6.00;;;;;;;12.31;56.46;99212.06;4952773;28;20495;-85
2021/10/29 05:51:09;;;;;;;7.82;6.00;;;;;;;12.33;56.12;99203.06;4951760;29;20062;-85
2021/10/29 05:56:33;;;;;;;8.23;5.28;;;;;;;12.34;56.32;99212.66;5030880;28;20395;-80
2021/10/29 05:59:03;;;;;;;9.43;6.05;;;;;;;12.34;56.19;99199.47;4952365;28;20051;-79
2021/10/29 06:01:36;;;;;;;9.07;5.90;;;;;;;12.32;56.36;99204.03;4951425;29;20058;-80
2021/10/29 06:04:04;;;;;;;11.00;6.25;;;;;;;12.35;56.19;99200.31;4951672;28;20062;-80
2021/10/29 06:06:32;;;;;;;10.60;5.90;;;;;;;12.35;56.37;99200.31;4951993;29;20453;-80
2021/10/29 06:08:59;;;;;;;8.93;5.70;;;;;;;12.35;56.15;99203.81;4952016;29;20473;-80
2021/10/29 06:11:28;;;;;;;9.60;6.00;;;;;;;12.36;56.26;99209.91;4951922;28;20139;-83
2021/10/29 06:13:55;;;;;;;9.65;5.63;;;;;;;12.35;56.18;99202.97;4951603;28;20059;-83
2021/10/29 06:16:23;;;;;;;7.55;5.55;;;;;;;12.35;56.21;99206.44;4951549;29;20062;-83
2021/10/29 06:18:55;;;;;;;8.60;5.82;;;;;;;12.37;56.01;99207.16;4951621;29;20062;-83
2021/10/29 06:24:20;;;;;;;8.00;5.45;;;;;;;12.37;56.16;99201.03;5030984;28;20054;-83
2021/10/29 06:26:51;;;;;;;7.22;5.25;;;;;;;12.40;56.13;99206.09;4952119;28;20077;-83
2021/10/29 06:29:19;;;;;;;9.25;5.45;;;;;;;12.38;56.28;99198.28;4951227;29;20055;-83
2021/10/29 06:31:46;;;;;;;8.65;5.50;;;;;;;12.39;56.06;99191.22;4951129;29;20066;-79
2021/10/29 06:34:25;;;;;;;9.50;5.30;;;;;;;12.36;56.42;99194.06;4951322;28;20051;-79
2021/10/29 06:36:52;;;;;;;8.80;5.70;;;;;;;12.41;55.88;99191.94;4951598;28;20502;-79
2021/10/29 06:39:21;;;;;;;7.97;5.72;;;;;;;12.42;56.01;99192.78;4951099;29;20055;-79
2021/10/29 06:41:48;;;;;;;7.40;5.47;;;;;;;12.42;56.17;99188.38;4951510;29;20061;-79
2021/10/29 07:41:16;;;;;;;7.32;4.40;;;;;;;13.03;55.71;99215.53;4955189;29;20062;-81
2021/10/29 07:46:12;;;;;;;5.72;4.07;;;;;;;13.09;55.54;99212.41;4955088;28;20474;-80
2021/10/29 07:48:39;;;;;;;8.07;4.22;;;;;;;13.15;55.59;99201.41;4954004;29;20468;-80
2021/10/29 07:51:23;;;;;;;7.32;4.78;;;;;;;13.15;55.48;99201.41;4953677;28;20051;-80
2021/10/29 07:53:51;;;;;;;9.65;4.63;;;;;;;13.22;55.46;99196.47;4953733;29;20146;-80
2021/10/29 07:56:27;;;;;;;6.60;4.10;;;;;;;13.24;55.25;99197.19;4953727;29;20145;-80
2021/10/29 07:59:14;;;;;;;5.32;4.03;;;;;;;13.31;55.34;99192.31;4953602;28;20047;-80
2021/10/29 08:01:41;;;;;;;9.70;4.60;;;;;;;13.34;55.13;99199.16;4953532;29;20065;-80
2021/10/29 08:04:08;;;;;;;8.10;3.65;;;;;;;13.38;55.32;99200.59;4953741;28;20476;-79
2021/10/29 08:06:35;;;;;;;7.22;4.45;;;;;;;13.40;55.12;99199.50;4953306;28;20067;-81
2021/10/29 08:09:03;;;;;;;8.50;4.65;;;;;;;13.43;55.00;99217.75;4953436;29;20381;-81
2021/10/29 08:11:30;;;;;;;6.47;3.80;;;;;;;13.49;55.01;99213.00;4953269;28;20097;-79
2021/10/29 08:13:58;;;;;;;5.47;4.00;;;;;;;13.54;55.07;99213.47;4953224;29;20055;-81
2021/10/29 08:16:26;;;;;;;6.53;4.00;;;;;;;13.57;54.88;99213.22;4954197;28;20055;-81
2021/10/29 08:18:53;;;;;;;7.80;4.18;;;;;;;13.62;54.93;99212.88;4953226;29;20385;-81
2021/10/29 08:21:20;;;;;;;6.05;4.50;;;;;;;13.65;54.77;99220.56;4954297;28;20055;-81
2021/10/29 08:23:46;;;;;;;5.63;4.07;;;;;;;13.68;54.69;99207.09;4952787;28;20142;-81
2021/10/29 08:26:14;;;;;;;5.55;4.10;;;;;;;13.72;54.76;99210.34;4953109;29;20142;-81
2021/10/29 08:28:42;;;;;;;6.43;3.95;;;;;;;13.74;54.76;99211.91;4952747;29;20120;-81
2021/10/29 08:31:09;;;;;;;5.93;3.92;;;;;;;13.78;54.58;99204.56;4953221;29;20055;-80
2021/10/29 08:33:38;;;;;;;7.90;4.25;;;;;;;13.81;54.67;99206.97;4953235;28;20059;-81
2021/10/29 08:36:05;;;;;;;4.15;3.45;;;;;;;13.84;54.41;99205.88;4953191;29;20512;-81
2021/10/29 08:38:33;;;;;;;7.38;3.95;;;;;;;13.86;54.68;99199.50;4952899;29;20073;-79
2021/10/29 08:41:21;;;;;;;5.78;3.72;;;;;;;13.90;54.57;99198.28;4953706;28;20058;-80
2021/10/29 08:43:48;;;;;;;6.00;3.60;;;;;;;13.94;54.60;99207.66;4952926;28;20051;-81
2021/10/29 08:46:16;;;;;;;6.40;3.65;;;;;;;13.98;54.62;99202.13;4952512;28;20051;-80
2021/10/29 08:48:43;;;;;;;6.07;3.50;;;;;;;14.03;54.58;99203.44;4952594;29;20510;-86
2021/10/29 08:51:11;;;;;;;4.72;3.78;;;;;;;14.06;54.50;99195.25;4954077;29;20125;-86
2021/10/29 08:53:38;;;;;;;7.60;3.92;;;;;;;14.13;54.60;99200.06;4952689;28;20053;-81
2021/10/29 08:56:06;;;;;;;5.28;4.05;;;;;;;14.19;54.49;99194.25;4953766;28;20321;-81
2021/10/29 08:59:16;;;;;;;8.40;4.18;;;;;;;14.20;54.47;99180.91;4952581;29;20142;-81
2021/10/29 09:33:11;;;;;;;5.82;4.00;;;;;;;14.96;53.85;99171.16;4953250;29;20063;-86
2021/10/29 09:35:40;;;;;;;8.27;5.03;;;;;;;15.03;54.10;99175.97;4952605;28;20047;-85
2021/10/29 09:38:09;;;;;;;6.95;4.57;;;;;;;15.08;54.04;99179.06;4952106;28;20051;-80
2021/10/29 09:41:04;;;;;;;5.97;4.53;;;;;;;15.13;53.84;99168.88;4951800;28;20070;-80
2021/10/29 09:43:33;;;;;;;6.65;4.50;;;;;;;15.20;54.06;99163.91;4951607;28;20051;-80
2021/10/29 09:46:07;;;;;;;6.63;4.85;;;;;;;15.26;53.79;99159.88;4951749;28;20105;-80
2021/10/29 09:48:51;;;;;;;6.78;5.53;;;;;;;15.32;53.68;99162.84;4951623;28;20043;-80
2021/10/29 09:51:33;;;;;;;8.75;5.25;;;;;;;15.38;53.72;99156.16;4951996;29;20051;-85
2021/10/29 09:54:10;;;;;;;8.40;4.80;;;;;;;15.45;53.93;99162.63;4952288;28;20051;-85
2021/10/29 09:56:46;;;;;;;13.70;5.60;;;;;;;15.50;53.65;99155.09;4950621;28;20051;-86
2021/10/29 09:59:13;;;;;;;6.85;5.05;;;;;;;15.56;53.71;99137.81;4950651;29;20412;-86
2021/10/29 10:01:41;;;;;;;8.40;5.47;;;;;;;15.63;53.72;99141.59;4950462;28;20063;-86
2021/10/29 10:04:10;;;;;;;8.20;5.03;;;;;;;15.71;53.71;99137.44;4950466;28;20047;-86
2021/10/29 10:06:40;;;;;;;7.55;5.22;;;;;;;15.79;53.40;99139.38;4950337;29;20470;-86
2021/10/29 10:09:08;;;;;;;8.40;5.95;;;;;;;15.87;53.48;99142.19;4950435;28;20462;-86
2021/10/29 10:11:38;;;;;;;10.45;6.28;;;;;;;15.95;53.49;99138.88;4950210;29;20138;-86
2021/10/29 10:14:05;;;;;;;10.30;6.43;;;;;;;16.03;53.42;99117.78;4950336;29;20102;-86
2021/10/29 10:16:33;;;;;;;9.98;6.03;;;;;;;16.11;53.50;99133.88;4950137;28;20063;-85
2021/10/29 10:19:00;;;;;;;8.80;5.50;;;;;;;16.21;53.52;99125.06;4950549;29;20579;-86
2021/10/29 10:21:37;;;;;;;6.65;5.28;;;;;;;16.29;53.05;99130.53;4951214;28;20431;-86
2021/10/29 10:24:12;;;;;;;8.40;5.97;;;;;;;16.41;53.30;99131.25;4951644;29;20079;-85
2021/10/29 10:49:06;;;;;;;8.60;5.15;;;;;;;17.44;52.70;99100.44;4955366;28;20093;-86
2021/10/29 10:51:56;;;;;;;7.70;5.22;;;;;;;17.66;52.99;99091.22;4955784;28;20086;-86
2021/10/29 10:54:40;;;;;;;10.20;5.38;;;;;;;18.01;54.02;99094.03;4954507;29;20073;-86
2021/10/29 10:57:20;;;;;;;6.75;5.47;;;;;;;18.36;53.36;99084.38;4954510;28;20054;-86
2021/10/29 11:11:16;;;;;;;6.47;5.00;;;;;;;19.27;49.24;99075.25;4955414;28;20059;-86
2021/10/29 11:13:43;;;;;;;6.55;5.00;;;;;;;19.27;48.68;99077.91;4954351;28;20054;-86
2021/10/29 11:16:19;;;;;;;6.90;5.35;;;;;;;19.17;48.25;99082.56;4954052;28;20819;-86
2021/10/29 11:19:16;;;;;;;6.70;5.22;;;;;;;19.07;48.73;99074.66;4961500;28;20054;-86
2021/10/29 11:21:49;;;;;;;5.78;4.97;;;;;;;19.01;48.93;99070.78;4954202;28;20142;-86
2021/10/29 11:24:29;;;;;;;9.95;5.28;;;;;;;18.92;49.03;99071.72;4954048;29;20150;-86
2021/10/29 11:27:18;;;;;;;6.75;5.30;;;;;;;18.92;49.65;99059.25;4954031;28;20145;-86
2021/10/29 11:29:50;;;;;;;6.13;5.20;;;;;;;19.01;50.13;99052.94;4953652;28;20133;-86
2021/10/29 11:32:20;;;;;;;7.65;5.50;;;;;;;19.16;50.09;99060.38;4954334;29;20158;-86
2021/10/29 11:34:53;;;;;;;6.60;4.88;;;;;;;19.30;49.71;99050.91;4955337;28;20059;-86
2021/10/29 11:37:20;;;;;;;6.10;4.82;;;;;;;19.45;49.69;99050.28;4954206;29;20142;-86
2021/10/29 11:39:47;;;;;;;5.63;4.75;;;;;;;19.55;49.14;99048.28;4953724;28;20138;-86
2021/10/29 11:42:18;;;;;;;7.57;5.15;;;;;;;19.55;47.99;99034.94;4954065;29;20055;-86
2021/10/29 11:44:45;;;;;;;7.50;5.43;;;;;;;19.55;48.30;99039.47;4954126;29;20468;-86
2021/10/29 11:47:17;;;;;;;7.22;5.80;;;;;;;19.47;47.66;99034.97;4954126;29;20055;-86
2021/10/29 11:49:44;;;;;;;6.78;4.95;;;;;;;19.42;48.27;99023.91;4953507;28;20047;-86
2021/10/29 11:52:13;;;;;;;6.15;5.25;;;;;;;19.33;48.04;99018.56;4953965;28;20062;-86
2021/10/29 11:54:51;;;;;;;5.60;4.90;;;;;;;19.20;48.25;99005.69;4954744;28;20144;-86
2021/10/29 12:08:30;;;;;;;6.28;4.85;;;;;;;18.74;48.97;98993.50;4934663;28;20058;-86
2021/10/29 12:11:02;;;;;;;5.20;4.65;;;;;;;18.70;48.62;99023.28;4953406;29;20087;-86
2021/10/29 12:13:33;;;;;;;6.27;5.03;;;;;;;18.62;48.90;99021.44;4953663;29;20055;-86
2021/10/29 12:16:00;;;;;;;8.02;4.95;;;;;;;18.57;49.50;99011.22;4953624;28;20130;-85
2021/10/29 12:18:36;;;;;;;7.10;5.13;;;;;;;18.53;49.39;99009.03;4952950;28;20470;-86
2021/10/29 12:21:04;;;;;;;6.82;4.57;;;;;;;18.48;49.59;99002.38;4953157;29;20065;-86
2021/10/29 12:23:35;;;;;;;7.05;4.80;;;;;;;18.45;49.72;99004.50;4953378;29;20475;-85
2021/10/29 12:26:09;;;;;;;8.70;4.70;;;;;;;18.45;49.79;98997.34;4953181;28;20086;-85
2021/10/29 12:28:40;;;;;;;7.78;4.72;;;;;;;18.44;49.96;98982.34;4953105;28;20050;-87
2021/10/29 13:04:20;;;;;;;4.45;3.92;;;;;;;19.31;49.14;98945.84;4953937;28;20077;-86
2021/10/29 13:06:49;;;;;;;6.22;3.65;;;;;;;19.41;49.01;98945.72;4952730;28;20059;-87
2021/10/29 13:09:18;;;;;;;4.18;3.53;;;;;;;19.47;48.81;98936.22;4951688;28;20095;-86
2021/10/29 13:12:01;;;;;;;4.95;3.55;;;;;;;19.51;48.24;98937.53;4952766;28;20472;-86
2021/10/29 13:17:03;;;;;;;6.60;3.72;;;;;;;19.55;48.22;98936.19;4953333;28;20049;-86
2021/10/29 13:22:54;;;;;;;5.22;3.65;;;;;;;19.57;48.14;98933.34;4953612;28;20063;-86
2021/10/29 13:56:18;;;;;;;5.03;3.15;;;;;;;18.88;48.49;98921.91;5031340;28;20049;-86
2021/10/29 14:30:11;;;;;;;4.05;2.67;;;;;;;18.95;50.11;98877.56;4952812;29;20058;-81
2021/10/29 14:32:58;;;;;;;2.97;2.58;;;;;;;19.27;50.30;98885.81;4951733;29;20061;-81
2021/10/29 14:35:32;;;;;;;6.63;2.92;;;;;;;19.64;50.09;98880.97;4951285;28;20146;-81
2021/10/29 14:40:48;;;;;;;5.65;2.80;;;;;;;20.37;48.57;98874.84;4952400;28;20065;-80
2021/10/29 14:43:37;;;;;;;5.82;2.75;;;;;;;20.82;49.03;98870.59;4951812;29;20055;-80
2021/10/29 14:46:21;;;;;;;7.32;3.03;;;;;;;21.32;48.30;98877.47;4951291;28;20093;-81
2021/10/29 15:31:02;;;;;;;5.10;3.50;;;;;;;19.32;45.74;98847.97;4951801;28;20130;-81
2021/10/29 15:42:43;;;;;;;4.30;3.20;;;;;;;18.62;46.71;98846.34;4955042;29;20145;-81
2021/10/29 15:45:18;;;;;;;6.88;3.38;;;;;;;18.49;47.08;98848.63;4953909;29;20055;-81
2021/10/29 15:47:49;;;;;;;6.18;3.40;;;;;;;18.36;47.03;98846.44;4998243;28;20129;-81
2021/10/29 15:50:17;;;;;;;4.88;3.88;;;;;;;18.25;47.04;98834.22;4997952;28;20545;-81
2021/10/29 15:52:51;;;;;;;4.88;3.63;;;;;;;18.13;47.29;98840.84;4999093;28;20049;-81
2021/10/29 16:18:00;;;;;;;5.97;3.78;;;;;;;17.23;48.88;98834.75;4954409;29;20059;-81
2021/10/29 16:20:27;;;;;;;5.90;4.18;;;;;;;17.15;49.09;98836.34;4953233;28;20127;-81
2021/10/29 16:22:56;;;;;;;8.38;4.13;;;;;;;17.09;49.38;98841.44;4953261;29;20055;-82
2021/10/29 16:28:15;;;;;;;6.88;4.40;;;;;;;16.99;49.63;98837.00;4954748;28;20051;-82
2021/10/29 16:30:42;;;;;;;5.13;4.18;;;;;;;16.95;49.76;98846.25;4953014;28;20166;-82
2021/10/29 16:33:32;;;;;;;4.50;4.10;;;;;;;16.90;49.92;98846.69;4953071;28;20051;-82
2021/10/29 16:35:59;;;;;;;5.00;4.03;;;;;;;16.88;49.99;98854.00;4953091;29;20097;-83
2021/10/29 16:38:33;;;;;;;6.38;4.43;;;;;;;16.83;50.16;98856.28;4953232;28;20074;-82
2021/10/29 16:41:01;;;;;;;9.70;3.90;;;;;;;16.84;50.12;98862.41;4952972;28;20047;-82
2021/10/29 16:43:28;;;;;;;4.90;4.40;;;;;;;16.81;50.21;98847.59;4953030;28;20059;-82
2021/10/29 16:45:59;;;;;;;6.05;4.47;;;;;;;16.77;50.56;98857.72;4952921;28;20097;-82
2021/10/29 16:48:26;;;;;;;5.90;4.38;;;;;;;16.75;50.38;98857.00;4952907;28;20051;-82
2021/10/29 16:50:56;;;;;;;6.32;3.72;;;;;;;16.72;50.67;98859.16;4954035;28;20078;-82
2021/10/29 16:53:34;;;;;;;7.50;4.13;;;;;;;16.67;50.69;98859.59;4954349;28;20051;-82
2021/10/29 16:56:03;;;;;;;9.13;4.97;;;;;;;16.67;50.38;98857.78;4952877;29;20059;-82
2021/10/29 16:58:32;;;;;;;8.43;4.22;;;;;;;16.65;50.62;98856.25;4952754;29;20055;-82
2021/10/29 17:00:59;;;;;;;9.15;4.47;;;;;;;16.62;50.58;98860.03;4952801;29;20052;-82
2021/10/29 17:03:26;;;;;;;6.38;4.00;;;;;;;16.59;50.69;98856.88;4952796;29;20101;-82
2021/10/29 17:05:55;;;;;;;5.55;4.28;;;;;;;16.55;50.81;98858.97;4952760;29;20090;-82
2021/10/29 17:08:23;;;;;;;7.40;4.63;;;;;;;16.52;50.77;98852.13;4952931;28;20086;-82
2021/10/29 17:10:49;;;;;;;8.48;4.35;;;;;;;16.50;50.83;98861.22;4952503;28;20047;-82
2021/10/29 17:13:35;;;;;;;7.20;4.72;;;;;;;16.41;51.33;98861.13;4954063;28;20389;-82
2021/10/29 17:16:01;;;;;;;6.20;4.68;;;;;;;16.44;51.02;98867.97;4952688;28;20141;-82
2021/10/29 17:18:29;;;;;;;6.40;4.13;;;;;;;16.41;51.03;98862.97;4952817;28;20062;-83
2021/10/29 17:21:16;;;;;;;7.43;4.70;;;;;;;16.34;51.38;98867.19;4953113;28;20411;-81